createdAt,value
2018-08-12T00:00:14.126Z,99.90
2018-08-12T00:02:42.284Z,99.90
2018-08-12T00:05:11.323Z,99.90
2018-08-12T00:07:39.859Z,99.90
2018-08-12T00:10:09.535Z,99.90
2018-08-12T00:12:38.050Z,99.90
2018-08-12T00:15:08.283Z,99.90
2018-08-12T00:17:36.844Z,99.90
2018-08-12T00:20:06.459Z,99.90
2018-08-12T00:22:34.940Z,99.90
2018-08-12T00:25:03.657Z,99.90
2018-08-12T00:27:32.102Z,99.90
2018-08-12T00:30:00.868Z,99.90
2018-08-12T00:32:29.506Z,99.90
2018-08-12T00:34:57.722Z,99.90
2018-08-12T00:37:25.913Z,99.90
2018-08-12T00:39:54.593Z,99.90
2018-08-12T00:42:22.959Z,99.90
2018-08-12T00:44:51.469Z,99.90
2018-08-12T00:47:19.939Z,99.90
2018-08-12T00:49:48.727Z,99.90
2018-08-12T00:52:17.551Z,99.90
2018-08-12T00:54:46.352Z,99.90
2018-08-12T00:57:14.749Z,99.90
2018-08-12T00:59:44.106Z,99.90
2018-08-12T01:02:12.475Z,99.90
2018-08-12T01:04:40.879Z,99.90
2018-08-12T01:07:09.503Z,99.90
2018-08-12T01:09:38.021Z,99.90
2018-08-12T01:12:06.957Z,99.90
2018-08-12T01:14:35.305Z,99.90
2018-08-12T01:17:03.784Z,99.90
2018-08-12T01:19:32.470Z,99.90
2018-08-12T01:22:00.857Z,99.90
2018-08-12T01:24:29.226Z,99.90
2018-08-12T01:26:57.582Z,99.90
2018-08-12T01:29:25.979Z,99.90
2018-08-12T01:31:54.849Z,99.90
2018-08-12T01:34:23.560Z,99.90
2018-08-12T01:36:52.597Z,99.90
2018-08-12T01:39:21.739Z,99.90
2018-08-12T01:41:50.074Z,99.90
2018-08-12T01:44:19.182Z,99.90
2018-08-12T01:46:48.196Z,99.90
2018-08-12T01:49:16.635Z,99.90
2018-08-12T01:51:45.387Z,99.90
2018-08-12T01:54:14.178Z,99.90
2018-08-12T01:56:42.968Z,99.90
2018-08-12T01:59:11.710Z,99.90
2018-08-12T02:01:40.779Z,99.90
2018-08-12T02:04:09.527Z,99.90
2018-08-12T02:06:37.862Z,99.90
2018-08-12T02:09:07.835Z,99.90
2018-08-12T02:11:36.521Z,99.90
2018-08-12T02:14:05.126Z,99.90
2018-08-12T02:16:33.983Z,99.90
2018-08-12T02:19:03.084Z,99.90
2018-08-12T02:21:32.102Z,99.90
2018-08-12T02:24:00.855Z,99.90
2018-08-12T02:26:29.403Z,99.90
2018-08-12T02:28:58.509Z,99.90
2018-08-12T02:31:27.222Z,99.90
2018-08-12T02:33:55.679Z,99.90
2018-08-12T02:36:24.420Z,99.90
2018-08-12T02:38:52.831Z,99.90
2018-08-12T02:41:21.524Z,99.90
2018-08-12T02:43:49.908Z,99.90
2018-08-12T02:46:18.625Z,99.90
2018-08-12T02:48:47.057Z,99.90
2018-08-12T02:51:15.424Z,99.90
2018-08-12T02:53:44.514Z,99.90
2018-08-12T02:56:13.003Z,99.90
2018-08-12T02:58:41.381Z,99.90
2018-08-12T03:01:09.771Z,99.90
2018-08-12T03:03:38.458Z,99.90
2018-08-12T03:06:06.922Z,99.90
2018-08-12T03:08:35.304Z,99.90
2018-08-12T03:11:03.859Z,99.90
2018-08-12T03:13:32.967Z,99.90
2018-08-12T03:16:01.689Z,99.90
2018-08-12T03:18:30.424Z,99.90
2018-08-12T03:20:58.831Z,99.90
2018-08-12T03:23:27.279Z,99.90
2018-08-12T03:25:55.831Z,99.90
2018-08-12T03:28:24.272Z,99.90
2018-08-12T03:30:52.998Z,99.90
2018-08-12T03:33:21.338Z,99.90
2018-08-12T03:35:49.779Z,99.90
2018-08-12T03:38:18.811Z,99.90
2018-08-12T03:40:47.555Z,99.90
2018-08-12T03:43:15.931Z,99.90
2018-08-12T03:45:44.642Z,99.90
2018-08-12T03:48:13.372Z,99.90
2018-08-12T03:50:42.486Z,99.90
2018-08-12T03:53:10.877Z,99.90
2018-08-12T03:55:39.306Z,99.90
2018-08-12T03:58:07.610Z,99.90
2018-08-12T04:00:36.350Z,99.90
2018-08-12T04:03:05.006Z,99.90
2018-08-12T04:05:33.367Z,99.90
2018-08-12T04:08:02.045Z,99.90
2018-08-12T04:10:31.204Z,99.90
2018-08-12T04:12:59.609Z,99.90
2018-08-12T04:15:27.927Z,99.90
2018-08-12T04:17:56.598Z,99.90
2018-08-12T04:20:25.008Z,99.90
2018-08-12T04:22:53.388Z,99.90
2018-08-12T04:25:22.541Z,99.90
2018-08-12T04:27:51.005Z,99.90
2018-08-12T04:30:20.172Z,99.90
2018-08-12T04:32:49.264Z,99.90
2018-08-12T04:35:17.643Z,99.90
2018-08-12T04:37:47.769Z,99.90
2018-08-12T04:40:16.161Z,99.90
2018-08-12T04:42:44.947Z,99.90
2018-08-12T04:45:13.529Z,99.90
2018-08-12T04:47:42.032Z,99.90
2018-08-12T04:50:10.411Z,99.90
2018-08-12T04:52:39.082Z,99.90
2018-08-12T04:55:07.705Z,99.90
2018-08-12T04:57:36.151Z,99.90
2018-08-12T05:00:05.718Z,99.90
2018-08-12T05:02:34.853Z,99.90
2018-08-12T05:05:03.627Z,99.90
2018-08-12T05:07:32.460Z,99.90
2018-08-12T05:10:01.207Z,99.90
2018-08-12T05:12:29.574Z,99.90
2018-08-12T05:14:58.230Z,99.90
2018-08-12T05:17:26.907Z,99.90
2018-08-12T05:19:55.957Z,99.90
2018-08-12T05:22:24.672Z,99.90
2018-08-12T05:24:53.407Z,99.90
2018-08-12T05:27:22.115Z,99.90
2018-08-12T05:29:50.265Z,99.90
2018-08-12T05:32:18.712Z,99.90
2018-08-12T05:34:46.938Z,99.90
2018-08-12T05:37:15.046Z,99.90
2018-08-12T05:39:43.472Z,99.90
2018-08-12T05:42:11.972Z,99.90
2018-08-12T05:44:40.464Z,99.90
2018-08-12T05:47:09.292Z,99.90
2018-08-12T05:49:37.451Z,99.90
2018-08-12T05:52:05.939Z,99.90
2018-08-12T05:54:34.112Z,99.90
2018-08-12T05:57:02.193Z,99.90
2018-08-12T05:59:30.265Z,99.90
2018-08-12T06:01:58.434Z,99.90
2018-08-12T06:04:27.243Z,99.90
2018-08-12T06:06:55.852Z,99.90
2018-08-12T06:09:24.334Z,99.90
2018-08-12T06:11:52.412Z,99.90
2018-08-12T06:14:20.850Z,99.90
2018-08-12T06:16:49.629Z,99.90
2018-08-12T06:19:18.348Z,99.90
2018-08-12T06:21:47.118Z,99.90
2018-08-12T06:24:15.589Z,99.90
2018-08-12T06:26:44.013Z,99.90
2018-08-12T06:29:12.554Z,99.90
2018-08-12T06:31:40.682Z,99.90
2018-08-12T06:34:08.774Z,99.90
2018-08-12T06:36:37.383Z,99.90
2018-08-12T06:39:07.975Z,99.90
2018-08-12T06:41:36.052Z,99.90
2018-08-12T06:44:04.298Z,99.90
2018-08-12T06:46:33.129Z,99.90
2018-08-12T06:49:01.215Z,99.90
2018-08-12T06:51:29.398Z,99.90
2018-08-12T06:53:57.840Z,99.90
2018-08-12T06:56:26.141Z,99.70
2018-08-12T06:58:54.925Z,97.10
2018-08-12T07:01:23.696Z,96.50
2018-08-12T07:03:51.793Z,95.80
2018-08-12T07:06:20.634Z,95.40
2018-08-12T07:08:49.027Z,95.00
2018-08-12T07:11:17.825Z,95.00
2018-08-12T07:13:45.944Z,94.00
2018-08-12T07:16:14.028Z,92.30
2018-08-12T07:18:42.586Z,91.20
2018-08-12T07:21:10.738Z,90.80
2018-08-12T07:23:38.938Z,91.40
2018-08-12T07:26:07.095Z,90.70
2018-08-12T07:28:35.289Z,90.00
2018-08-12T07:31:03.461Z,88.30
2018-08-12T07:33:31.569Z,88.30
2018-08-12T07:36:00.394Z,86.50
2018-08-12T07:38:28.492Z,82.30
2018-08-12T07:40:56.616Z,82.30
2018-08-12T07:43:25.101Z,80.90
2018-08-12T07:45:53.228Z,81.00
2018-08-12T07:48:21.348Z,77.30
2018-08-12T07:50:49.823Z,77.60
2018-08-12T07:53:18.255Z,77.30
2018-08-12T07:55:46.702Z,76.80
2018-08-12T07:58:15.023Z,78.10
2018-08-12T08:00:43.139Z,78.10
2018-08-12T08:03:11.616Z,77.10
2018-08-12T08:05:39.677Z,76.40
2018-08-12T08:08:08.068Z,74.90
2018-08-12T08:10:36.810Z,73.30
2018-08-12T08:13:04.881Z,71.70
2018-08-12T08:15:32.993Z,70.00
2018-08-12T08:18:01.168Z,69.90
2018-08-12T08:20:29.638Z,67.90
2018-08-12T08:22:58.435Z,67.20
2018-08-12T08:25:26.660Z,66.00
2018-08-12T08:27:54.876Z,65.50
2018-08-12T08:30:23.099Z,65.20
2018-08-12T08:32:51.243Z,64.10
2018-08-12T08:35:20.868Z,63.90
2018-08-12T08:37:49.479Z,61.80
2018-08-12T08:40:18.176Z,61.60
2018-08-12T08:42:46.762Z,59.50
2018-08-12T08:45:17.410Z,59.80
2018-08-12T08:47:46.589Z,59.80
2018-08-12T08:50:15.372Z,58.60
2018-08-12T08:52:43.979Z,59.10
2018-08-12T08:55:13.473Z,57.90
2018-08-12T08:57:41.550Z,57.10
2018-08-12T09:00:13.014Z,56.30
2018-08-12T09:02:41.976Z,54.70
2018-08-12T09:05:11.727Z,54.50
2018-08-12T09:07:40.174Z,53.70
2018-08-12T09:10:09.736Z,53.10
2018-08-12T09:12:38.296Z,52.70
2018-08-12T09:15:07.741Z,51.20
2018-08-12T09:17:35.872Z,51.80
2018-08-12T09:20:05.046Z,50.00
2018-08-12T09:22:33.524Z,49.40
2018-08-12T09:25:01.631Z,48.30
2018-08-12T09:27:30.133Z,47.60
2018-08-12T09:29:58.461Z,48.30
2018-08-12T09:32:26.591Z,46.50
2018-08-12T09:34:54.744Z,46.40
2018-08-12T09:37:22.897Z,47.40
2018-08-12T09:39:51.354Z,47.40
2018-08-12T09:42:19.816Z,46.20
2018-08-12T09:44:47.890Z,45.20
2018-08-12T09:47:16.044Z,44.70
2018-08-12T09:49:44.502Z,44.40
2018-08-12T09:52:12.668Z,44.40
2018-08-12T09:54:40.821Z,42.70
2018-08-12T09:57:09.204Z,42.70
2018-08-12T09:59:37.644Z,43.50
2018-08-12T10:02:05.732Z,44.20
2018-08-12T10:04:34.221Z,43.50
2018-08-12T10:07:03.037Z,42.90
2018-08-12T10:09:31.206Z,43.20
2018-08-12T10:11:59.316Z,43.40
2018-08-12T10:14:28.137Z,42.90
2018-08-12T10:16:56.212Z,42.90
2018-08-12T10:19:24.273Z,42.40
2018-08-12T10:21:52.350Z,41.90
2018-08-12T10:24:20.826Z,42.20
2018-08-12T10:26:48.930Z,41.90
2018-08-12T10:29:17.479Z,41.70
2018-08-12T10:31:45.636Z,41.00
2018-08-12T10:34:13.768Z,40.80
2018-08-12T10:36:42.196Z,41.00
2018-08-12T10:39:10.326Z,40.10
2018-08-12T10:41:38.438Z,39.70
2018-08-12T10:44:06.859Z,38.40
2018-08-12T10:46:34.967Z,38.20
2018-08-12T10:49:03.423Z,38.70
2018-08-12T10:51:31.625Z,37.60
2018-08-12T10:53:59.722Z,37.00
2018-08-12T10:56:27.858Z,38.70
2018-08-12T10:58:56.244Z,38.50
2018-08-12T11:01:24.675Z,38.80
2018-08-12T11:03:53.154Z,39.70
2018-08-12T11:06:21.249Z,39.70
2018-08-12T11:08:49.691Z,39.40
2018-08-12T11:11:18.238Z,38.60
2018-08-12T11:13:46.695Z,37.60
2018-08-12T11:16:14.754Z,36.60
2018-08-12T11:18:42.832Z,35.80
2018-08-12T11:21:11.059Z,35.80
2018-08-12T11:23:39.808Z,35.60
2018-08-12T11:26:08.013Z,35.70
2018-08-12T11:28:36.496Z,36.10
2018-08-12T11:31:05.050Z,35.80
2018-08-12T11:33:33.531Z,35.70
2018-08-12T11:36:02.025Z,35.70
2018-08-12T11:38:31.059Z,36.00
2018-08-12T11:40:59.517Z,35.90
2018-08-12T11:43:27.746Z,35.90
2018-08-12T11:45:55.980Z,35.90
2018-08-12T11:48:24.394Z,34.60
2018-08-12T11:50:52.532Z,33.00
2018-08-12T11:53:21.322Z,31.30
2018-08-12T11:55:49.877Z,31.70
2018-08-12T11:58:18.301Z,31.80
2018-08-12T12:00:46.729Z,31.90
2018-08-12T12:03:14.806Z,32.30
2018-08-12T12:05:43.217Z,32.10
2018-08-12T12:08:12.242Z,31.30
2018-08-12T12:10:45.282Z,30.40
2018-08-12T12:13:13.379Z,29.80
2018-08-12T12:15:41.502Z,29.30
2018-08-12T12:18:09.611Z,30.00
2018-08-12T12:20:37.788Z,30.10
2018-08-12T12:23:06.366Z,30.10
2018-08-12T12:25:34.477Z,30.00
2018-08-12T12:28:02.755Z,29.50
2018-08-12T12:30:31.212Z,28.40
2018-08-12T12:32:59.646Z,28.90
2018-08-12T12:35:28.143Z,28.30
2018-08-12T12:37:56.843Z,28.30
2018-08-12T12:40:24.900Z,27.90
2018-08-12T12:42:53.424Z,28.40
2018-08-12T12:45:21.605Z,28.30
2018-08-12T12:47:50.414Z,27.80
2018-08-12T12:50:20.331Z,27.50
2018-08-12T12:52:49.974Z,27.80
2018-08-12T12:55:19.529Z,27.30
2018-08-12T12:57:47.619Z,26.80
2018-08-12T13:00:17.196Z,26.40
2018-08-12T13:02:45.495Z,27.20
2018-08-12T13:05:15.080Z,27.50
2018-08-12T13:07:45.043Z,27.30
2018-08-12T13:10:14.227Z,26.70
2018-08-12T13:12:43.198Z,26.10
2018-08-12T13:15:12.521Z,27.30
2018-08-12T13:17:40.754Z,27.90
2018-08-12T13:20:11.811Z,27.50
2018-08-12T13:22:40.075Z,27.40
2018-08-12T13:25:11.190Z,27.60
2018-08-12T13:27:39.485Z,27.90
2018-08-12T13:30:08.637Z,27.10
2018-08-12T13:32:36.762Z,26.50
2018-08-12T13:35:04.917Z,25.90
2018-08-12T13:37:33.252Z,26.30
2018-08-12T13:40:01.659Z,26.60
2018-08-12T13:42:29.775Z,27.50
2018-08-12T13:44:58.189Z,27.40
2018-08-12T13:47:26.245Z,27.20
2018-08-12T13:49:54.666Z,27.20
2018-08-12T13:52:22.715Z,27.40
2018-08-12T13:54:51.114Z,28.30
2018-08-12T13:57:19.330Z,28.20
2018-08-12T13:59:47.722Z,27.00
2018-08-12T14:02:15.812Z,26.80
2018-08-12T14:04:43.891Z,26.10
2018-08-12T14:07:12.385Z,26.10
2018-08-12T14:09:40.465Z,26.50
2018-08-12T14:12:08.516Z,26.90
2018-08-12T14:14:36.995Z,26.10
2018-08-12T14:17:05.142Z,25.10
2018-08-12T14:19:33.556Z,25.30
2018-08-12T14:22:01.602Z,25.70
2018-08-12T14:24:29.749Z,26.20
2018-08-12T14:26:57.821Z,26.70
2018-08-12T14:29:26.278Z,26.70
2018-08-12T14:31:54.379Z,26.40
2018-08-12T14:34:22.832Z,25.90
2018-08-12T14:36:51.406Z,26.50
2018-08-12T14:39:19.822Z,27.30
2018-08-12T14:41:48.294Z,28.00
2018-08-12T14:44:17.084Z,28.70
2018-08-12T14:46:45.566Z,29.00
2018-08-12T14:49:13.662Z,29.60
2018-08-12T14:51:42.355Z,30.10
2018-08-12T14:54:10.821Z,30.60
2018-08-12T14:56:39.607Z,30.10
2018-08-12T14:59:07.956Z,31.10
2018-08-12T15:01:36.491Z,31.60
2018-08-12T15:04:04.546Z,31.60
2018-08-12T15:06:32.981Z,31.40
2018-08-12T15:09:01.412Z,30.40
2018-08-12T15:11:29.849Z,30.00
2018-08-12T15:13:57.985Z,30.00
2018-08-12T15:16:26.458Z,30.00
2018-08-12T15:18:54.561Z,30.60
2018-08-12T15:21:22.594Z,30.80
2018-08-12T15:23:50.699Z,30.60
2018-08-12T15:26:18.878Z,30.90
2018-08-12T15:28:46.948Z,30.30
2018-08-12T15:31:15.307Z,30.40
2018-08-12T15:33:43.411Z,31.10
2018-08-12T15:36:11.919Z,31.70
2018-08-12T15:38:40.205Z,32.00
2018-08-12T15:41:09.008Z,31.80
2018-08-12T15:43:37.192Z,31.50
2018-08-12T15:46:05.599Z,31.90
2018-08-12T15:48:33.669Z,32.60
2018-08-12T15:51:02.507Z,31.90
2018-08-12T15:53:31.135Z,31.90
2018-08-12T15:55:59.539Z,31.40
2018-08-12T15:58:28.083Z,31.50
2018-08-12T16:00:56.195Z,31.90
2018-08-12T16:03:24.617Z,31.80
2018-08-12T16:05:53.298Z,32.10
2018-08-12T16:08:22.139Z,31.70
2018-08-12T16:10:50.641Z,31.90
2018-08-12T16:13:19.099Z,32.30
2018-08-12T16:15:47.228Z,32.80
2018-08-12T16:18:15.679Z,32.30
2018-08-12T16:20:44.166Z,33.10
2018-08-12T16:23:12.334Z,32.30
2018-08-12T16:25:40.578Z,33.20
2018-08-12T16:28:08.838Z,33.80
2018-08-12T16:30:36.950Z,33.00
2018-08-12T16:33:05.824Z,32.80
2018-08-12T16:35:34.308Z,33.20
2018-08-12T16:38:02.742Z,32.30
2018-08-12T16:40:30.857Z,31.90
2018-08-12T16:42:59.059Z,32.30
2018-08-12T16:45:27.508Z,32.20
2018-08-12T16:47:56.275Z,31.50
2018-08-12T16:50:24.736Z,31.30
2018-08-12T16:52:53.199Z,31.10
2018-08-12T16:55:21.302Z,31.40
2018-08-12T16:57:49.370Z,32.10
2018-08-12T17:00:19.187Z,32.30
2018-08-12T17:02:47.732Z,31.70
2018-08-12T17:05:17.134Z,32.60
2018-08-12T17:07:45.619Z,32.00
2018-08-12T17:10:15.446Z,31.50
2018-08-12T17:12:43.538Z,31.70
2018-08-12T17:15:13.504Z,31.80
2018-08-12T17:17:42.087Z,32.10
2018-08-12T17:20:12.277Z,32.00
2018-08-12T17:22:41.240Z,32.90
2018-08-12T17:25:09.329Z,31.80
2018-08-12T17:27:37.694Z,31.90
2018-08-12T17:30:06.784Z,32.10
2018-08-12T17:32:35.145Z,32.50
2018-08-12T17:35:03.606Z,32.90
2018-08-12T17:37:31.702Z,32.10
2018-08-12T17:39:59.749Z,32.40
2018-08-12T17:42:29.802Z,33.90
2018-08-12T17:44:57.945Z,32.70
2018-08-12T17:47:26.435Z,33.20
2018-08-12T17:49:54.462Z,34.00
2018-08-12T17:52:22.650Z,34.10
2018-08-12T17:54:50.789Z,34.80
2018-08-12T17:57:18.926Z,34.40
2018-08-12T17:59:47.685Z,34.80
2018-08-12T18:02:16.121Z,35.50
2018-08-12T18:04:44.694Z,35.90
2018-08-12T18:07:13.121Z,36.20
2018-08-12T18:09:41.626Z,36.60
2018-08-12T18:12:09.712Z,36.60
2018-08-12T18:14:38.308Z,36.90
2018-08-12T18:17:06.469Z,36.90
2018-08-12T18:19:34.788Z,37.60
2018-08-12T18:22:03.202Z,38.10
2018-08-12T18:24:31.314Z,38.30
2018-08-12T18:26:59.742Z,39.00
2018-08-12T18:29:28.057Z,39.40
2018-08-12T18:31:56.280Z,39.40
2018-08-12T18:34:24.514Z,40.20
2018-08-12T18:36:52.714Z,40.50
2018-08-12T18:39:21.398Z,40.70
2018-08-12T18:41:49.616Z,40.70
2018-08-12T18:44:18.392Z,41.30
2018-08-12T18:46:46.497Z,41.50
2018-08-12T18:49:14.621Z,41.60
2018-08-12T18:51:42.755Z,41.60
2018-08-12T18:54:10.879Z,41.50
2018-08-12T18:56:39.371Z,41.90
2018-08-12T18:59:07.859Z,42.30
2018-08-12T19:01:36.607Z,42.60
2018-08-12T19:04:05.088Z,42.50
2018-08-12T19:06:33.243Z,42.90
2018-08-12T19:09:01.422Z,43.90
2018-08-12T19:11:30.010Z,45.30
2018-08-12T19:13:58.183Z,44.60
2018-08-12T19:16:26.631Z,45.30
2018-08-12T19:18:55.093Z,46.80
2018-08-12T19:21:23.884Z,45.90
2018-08-12T19:23:52.663Z,46.90
2018-08-12T19:26:20.813Z,46.10
2018-08-12T19:28:48.970Z,45.70
2018-08-12T19:31:17.886Z,45.80
2018-08-12T19:33:46.693Z,46.40
2018-08-12T19:36:14.918Z,46.60
2018-08-12T19:38:43.249Z,47.60
2018-08-12T19:41:12.199Z,47.40
2018-08-12T19:43:40.465Z,47.70
2018-08-12T19:46:08.625Z,48.00
2018-08-12T19:48:36.774Z,48.20
2018-08-12T19:51:04.951Z,48.00
2018-08-12T19:53:33.044Z,48.80
2018-08-12T19:56:01.375Z,48.60
2018-08-12T19:58:29.965Z,48.40
2018-08-12T20:00:58.074Z,48.30
2018-08-12T20:03:26.560Z,48.30
2018-08-12T20:05:55.025Z,49.20
2018-08-12T20:08:23.552Z,48.80
2018-08-12T20:10:52.081Z,48.60
2018-08-12T20:13:20.562Z,49.90
2018-08-12T20:15:49.040Z,49.00
2018-08-12T20:18:17.478Z,49.40
2018-08-12T20:20:46.306Z,49.60
2018-08-12T20:23:15.222Z,49.70
2018-08-12T20:25:43.727Z,49.60
2018-08-12T20:28:12.488Z,49.60
2018-08-12T20:30:40.905Z,50.30
2018-08-12T20:33:08.982Z,51.30
2018-08-12T20:35:37.468Z,50.90
2018-08-12T20:38:05.548Z,52.50
2018-08-12T20:40:34.029Z,51.80
2018-08-12T20:43:02.614Z,51.60
2018-08-12T20:45:30.789Z,51.90
2018-08-12T20:47:58.891Z,51.90
2018-08-12T20:50:27.670Z,52.80
2018-08-12T20:52:56.316Z,54.20
2018-08-12T20:55:25.075Z,54.30
2018-08-12T20:57:53.224Z,54.10
2018-08-12T21:00:21.694Z,54.70
2018-08-12T21:02:49.783Z,54.40
2018-08-12T21:05:17.890Z,53.80
2018-08-12T21:07:46.445Z,54.90
2018-08-12T21:10:14.891Z,54.30
2018-08-12T21:12:43.862Z,55.30
2018-08-12T21:15:12.023Z,55.90
2018-08-12T21:17:40.846Z,55.80
2018-08-12T21:20:09.292Z,55.70
2018-08-12T21:22:37.925Z,55.70
2018-08-12T21:25:06.321Z,55.00
2018-08-12T21:27:34.769Z,55.00
2018-08-12T21:30:03.403Z,55.00
2018-08-12T21:32:31.506Z,55.70
2018-08-12T21:35:00.013Z,55.60
2018-08-12T21:37:28.601Z,55.40
2018-08-12T21:39:57.142Z,56.00
2018-08-12T21:42:25.625Z,55.80
2018-08-12T21:44:54.333Z,55.70
2018-08-12T21:47:23.550Z,55.70
2018-08-12T21:49:52.070Z,55.70
2018-08-12T21:52:20.161Z,55.90
2018-08-12T21:54:48.252Z,56.30
2018-08-12T21:57:16.877Z,56.90
2018-08-12T21:59:45.278Z,56.90
2018-08-12T22:02:13.420Z,57.70
2018-08-12T22:04:41.515Z,58.10
2018-08-12T22:07:09.649Z,58.10
2018-08-12T22:09:38.431Z,57.80
2018-08-12T22:12:06.581Z,58.00
2018-08-12T22:14:35.041Z,58.70
2018-08-12T22:17:03.167Z,58.50
2018-08-12T22:19:31.286Z,58.60
2018-08-12T22:22:00.054Z,59.20
2018-08-12T22:24:28.516Z,59.90
2018-08-12T22:26:56.993Z,60.70
2018-08-12T22:29:25.133Z,60.80
2018-08-12T22:31:53.257Z,60.70
2018-08-12T22:34:21.419Z,61.70
2018-08-12T22:36:49.866Z,62.00
2018-08-12T22:39:18.635Z,62.50
2018-08-12T22:41:47.081Z,63.10
2018-08-12T22:44:15.221Z,63.10
2018-08-12T22:46:43.682Z,62.90
2018-08-12T22:49:13.066Z,64.30
2018-08-12T22:51:41.524Z,64.40
2018-08-12T22:54:09.590Z,64.20
2018-08-12T22:56:37.724Z,64.70
2018-08-12T22:59:05.779Z,65.20
2018-08-12T23:01:33.931Z,65.60
2018-08-12T23:04:02.306Z,66.90
2018-08-12T23:06:30.488Z,67.20
2018-08-12T23:08:58.958Z,68.10
2018-08-12T23:11:27.434Z,67.70
2018-08-12T23:13:55.559Z,69.50
2018-08-12T23:16:35.282Z,70.70
2018-08-12T23:19:03.417Z,72.00
2018-08-12T23:21:31.863Z,73.90
2018-08-12T23:24:00.314Z,76.70
2018-08-12T23:26:28.910Z,78.60
2018-08-12T23:28:57.524Z,81.60
2018-08-12T23:31:25.967Z,83.80
2018-08-12T23:33:54.361Z,86.80
2018-08-12T23:36:22.580Z,91.00
2018-08-12T23:38:51.062Z,93.00
2018-08-12T23:41:19.163Z,96.40
2018-08-12T23:43:47.660Z,97.70
2018-08-12T23:46:15.820Z,99.90
2018-08-12T23:48:43.969Z,99.90
2018-08-12T23:51:12.507Z,99.90
2018-08-12T23:53:40.890Z,99.90
2018-08-12T23:56:08.954Z,99.90
2018-08-12T23:58:37.074Z,99.90
